sensor_id;sensor_type;location;lat;lon;timestamp;temperature;humidity
3690;DHT22;1861;50.240;8.596;2024-01-30T00:00:42;5.30;99.90
3690;DHT22;1861;50.240;8.596;2024-01-30T00:03:10;5.50;99.90
3690;DHT22;1861;50.240;8.596;2024-01-30T00:05:38;5.40;99.90
3690;DHT22;1861;50.240;8.596;2024-01-30T00:08:06;5.40;99.90
3690;DHT22;1861;50.240;8.596;2024-01-30T00:10:35;5.50;99.90
3690;DHT22;1861;50.240;8.596;2024-01-30T00:13:03;5.50;99.90
3690;DHT22;1861;50.240;8.596;2024-01-30T00:15:31;5.50;99.90
3690;DHT22;1861;50.240;8.596;2024-01-30T00:18:01;5.50;99.90
3690;DHT22;1861;50.240;8.596;2024-01-30T00:20:29;5.40;99.90
3690;DHT22;1861;50.240;8.596;2024-01-30T00:22:57;5.40;99.90
3690;DHT22;1861;50.240;8.596;2024-01-30T00:25:25;5.20;99.90
3690;DHT22;1861;50.240;8.596;2024-01-30T00:27:53;5.30;99.90
3690;DHT22;1861;50.240;8.596;2024-01-30T00:30:21;5.30;99.90
3690;DHT22;1861;50.240;8.596;2024-01-30T00:32:49;5.20;99.90
3690;DHT22;1861;50.240;8.596;2024-01-30T00:35:19;5.20;99.90
3690;DHT22;1861;50.240;8.596;2024-01-30T00:37:48;5.20;99.90
3690;DHT22;1861;50.240;8.596;2024-01-30T00:40:17;5.20;99.90
3690;DHT22;1861;50.240;8.596;2024-01-30T00:42:45;5.20;99.90
3690;DHT22;1861;50.240;8.596;2024-01-30T00:45:14;5.20;99.90
3690;DHT22;1861;50.240;8.596;2024-01-30T00:47:42;5.20;99.90
3690;DHT22;1861;50.240;8.596;2024-01-30T00:50:11;5.20;99.90
3690;DHT22;1861;50.240;8.596;2024-01-30T00:52:40;5.10;99.90
3690;DHT22;1861;50.240;8.596;2024-01-30T00:55:11;5.10;99.90
3690;DHT22;1861;50.240;8.596;2024-01-30T00:57:41;5.10;99.90
3690;DHT22;1861;50.240;8.596;2024-01-30T01:00:13;5.30;99.90
3690;DHT22;1861;50.240;8.596;2024-01-30T01:02:43;5.30;99.90
3690;DHT22;1861;50.240;8.596;2024-01-30T01:05:12;5.30;99.90
3690;DHT22;1861;50.240;8.596;2024-01-30T01:07:40;5.20;99.90
3690;DHT22;1861;50.240;8.596;2024-01-30T01:10:09;5.20;99.90
3690;DHT22;1861;50.240;8.596;2024-01-30T01:12:38;5.20;99.90
3690;DHT22;1861;50.240;8.596;2024-01-30T01:15:07;5.20;99.90
3690;DHT22;1861;50.240;8.596;2024-01-30T01:17:36;5.20;99.90
3690;DHT22;1861;50.240;8.596;2024-01-30T01:20:06;5.20;99.90
3690;DHT22;1861;50.240;8.596;2024-01-30T01:22:34;5.10;99.90
3690;DHT22;1861;50.240;8.596;2024-01-30T01:25:04;5.10;99.90
3690;DHT22;1861;50.240;8.596;2024-01-30T01:27:34;5.10;99.90
3690;DHT22;1861;50.240;8.596;2024-01-30T01:30:09;5.10;99.90
3690;DHT22;1861;50.240;8.596;2024-01-30T01:32:38;5.20;99.90
3690;DHT22;1861;50.240;8.596;2024-01-30T01:35:12;5.10;99.90
3690;DHT22;1861;50.240;8.596;2024-01-30T01:37:40;5.00;99.90
3690;DHT22;1861;50.240;8.596;2024-01-30T01:40:10;5.10;99.90
3690;DHT22;1861;50.240;8.596;2024-01-30T01:42:38;5.00;99.90
3690;DHT22;1861;50.240;8.596;2024-01-30T01:45:07;5.10;99.90
3690;DHT22;1861;50.240;8.596;2024-01-30T01:47:35;5.20;99.90
3690;DHT22;1861;50.240;8.596;2024-01-30T01:50:03;5.10;99.90
3690;DHT22;1861;50.240;8.596;2024-01-30T01:52:32;5.10;99.90
3690;DHT22;1861;50.240;8.596;2024-01-30T01:55:00;5.00;99.90
3690;DHT22;1861;50.240;8.596;2024-01-30T01:57:30;5.00;99.90
3690;DHT22;1861;50.240;8.596;2024-01-30T01:59:58;5.00;99.90
3690;DHT22;1861;50.240;8.596;2024-01-30T02:02:27;5.00;99.90
3690;DHT22;1861;50.240;8.596;2024-01-30T02:04:57;5.10;99.90
3690;DHT22;1861;50.240;8.596;2024-01-30T02:07:25;5.10;99.90
3690;DHT22;1861;50.240;8.596;2024-01-30T02:09:54;5.20;99.90
3690;DHT22;1861;50.240;8.596;2024-01-30T02:12:22;5.20;99.90
3690;DHT22;1861;50.240;8.596;2024-01-30T02:14:51;5.30;99.90
3690;DHT22;1861;50.240;8.596;2024-01-30T02:17:20;5.20;99.90
3690;DHT22;1861;50.240;8.596;2024-01-30T02:19:50;5.00;99.90
3690;DHT22;1861;50.240;8.596;2024-01-30T02:22:20;5.00;99.90
3690;DHT22;1861;50.240;8.596;2024-01-30T02:24:49;5.00;99.90
3690;DHT22;1861;50.240;8.596;2024-01-30T02:27:17;5.00;99.90
3690;DHT22;1861;50.240;8.596;2024-01-30T02:29:46;5.00;99.90
3690;DHT22;1861;50.240;8.596;2024-01-30T02:32:14;5.00;99.90
3690;DHT22;1861;50.240;8.596;2024-01-30T02:34:42;5.00;99.90
3690;DHT22;1861;50.240;8.596;2024-01-30T02:37:10;5.00;99.90
3690;DHT22;1861;50.240;8.596;2024-01-30T02:39:40;4.90;99.90
3690;DHT22;1861;50.240;8.596;2024-01-30T02:42:08;5.00;99.90
3690;DHT22;1861;50.240;8.596;2024-01-30T02:44:36;5.00;99.90
3690;DHT22;1861;50.240;8.596;2024-01-30T02:47:04;5.00;99.90
3690;DHT22;1861;50.240;8.596;2024-01-30T02:49:32;5.00;99.90
3690;DHT22;1861;50.240;8.596;2024-01-30T02:52:01;4.90;99.90
3690;DHT22;1861;50.240;8.596;2024-01-30T02:54:29;5.00;99.90
3690;DHT22;1861;50.240;8.596;2024-01-30T02:56:59;5.00;99.90
3690;DHT22;1861;50.240;8.596;2024-01-30T02:59:27;5.00;99.90
3690;DHT22;1861;50.240;8.596;2024-01-30T03:01:55;5.00;99.90
3690;DHT22;1861;50.240;8.596;2024-01-30T03:04:23;5.00;99.90
3690;DHT22;1861;50.240;8.596;2024-01-30T03:06:51;5.10;99.90
3690;DHT22;1861;50.240;8.596;2024-01-30T03:09:20;5.00;99.90
3690;DHT22;1861;50.240;8.596;2024-01-30T03:11:48;5.00;99.90
3690;DHT22;1861;50.240;8.596;2024-01-30T03:14:17;5.00;99.90
3690;DHT22;1861;50.240;8.596;2024-01-30T03:16:45;5.00;99.90
3690;DHT22;1861;50.240;8.596;2024-01-30T03:19:14;5.00;99.90
3690;DHT22;1861;50.240;8.596;2024-01-30T03:21:42;4.90;99.90
3690;DHT22;1861;50.240;8.596;2024-01-30T03:24:10;5.00;99.90
3690;DHT22;1861;50.240;8.596;2024-01-30T03:26:38;4.90;99.90
3690;DHT22;1861;50.240;8.596;2024-01-30T03:29:06;4.90;99.90
3690;DHT22;1861;50.240;8.596;2024-01-30T03:31:36;4.90;99.90
3690;DHT22;1861;50.240;8.596;2024-01-30T03:34:04;5.00;99.90
3690;DHT22;1861;50.240;8.596;2024-01-30T03:36:32;5.00;99.90
3690;DHT22;1861;50.240;8.596;2024-01-30T03:39:01;5.00;99.90
3690;DHT22;1861;50.240;8.596;2024-01-30T03:41:30;4.90;99.90
3690;DHT22;1861;50.240;8.596;2024-01-30T03:43:58;4.90;99.90
3690;DHT22;1861;50.240;8.596;2024-01-30T03:46:26;5.00;99.90
3690;DHT22;1861;50.240;8.596;2024-01-30T03:48:56;5.00;99.90
3690;DHT22;1861;50.240;8.596;2024-01-30T03:51:24;4.80;99.90
3690;DHT22;1861;50.240;8.596;2024-01-30T03:53:52;4.80;99.90
3690;DHT22;1861;50.240;8.596;2024-01-30T03:56:20;4.80;99.90
3690;DHT22;1861;50.240;8.596;2024-01-30T03:58:48;4.70;99.90
3690;DHT22;1861;50.240;8.596;2024-01-30T04:01:16;4.80;99.90
3690;DHT22;1861;50.240;8.596;2024-01-30T04:03:44;4.80;99.90
3690;DHT22;1861;50.240;8.596;2024-01-30T04:06:14;4.80;99.90
3690;DHT22;1861;50.240;8.596;2024-01-30T04:08:42;4.80;99.90
3690;DHT22;1861;50.240;8.596;2024-01-30T04:11:10;4.80;99.90
3690;DHT22;1861;50.240;8.596;2024-01-30T04:13:38;4.70;99.90
3690;DHT22;1861;50.240;8.596;2024-01-30T04:16:06;4.70;99.90
3690;DHT22;1861;50.240;8.596;2024-01-30T04:18:35;4.60;99.90
3690;DHT22;1861;50.240;8.596;2024-01-30T04:21:03;4.70;99.90
3690;DHT22;1861;50.240;8.596;2024-01-30T04:23:33;4.70;99.90
3690;DHT22;1861;50.240;8.596;2024-01-30T04:26:01;4.80;99.90
3690;DHT22;1861;50.240;8.596;2024-01-30T04:28:29;4.80;99.90
3690;DHT22;1861;50.240;8.596;2024-01-30T04:30:57;4.80;99.90
3690;DHT22;1861;50.240;8.596;2024-01-30T04:33:26;4.70;99.90
3690;DHT22;1861;50.240;8.596;2024-01-30T04:35:54;4.70;99.90
3690;DHT22;1861;50.240;8.596;2024-01-30T04:38:22;4.70;99.90
3690;DHT22;1861;50.240;8.596;2024-01-30T04:40:51;4.60;99.90
3690;DHT22;1861;50.240;8.596;2024-01-30T04:43:20;4.60;99.90
3690;DHT22;1861;50.240;8.596;2024-01-30T04:45:49;4.60;99.90
3690;DHT22;1861;50.240;8.596;2024-01-30T04:48:17;4.60;99.90
3690;DHT22;1861;50.240;8.596;2024-01-30T04:50:45;4.70;99.90
3690;DHT22;1861;50.240;8.596;2024-01-30T04:53:13;4.60;99.90
3690;DHT22;1861;50.240;8.596;2024-01-30T04:55:41;4.60;99.90
3690;DHT22;1861;50.240;8.596;2024-01-30T04:58:11;4.60;99.90
3690;DHT22;1861;50.240;8.596;2024-01-30T05:00:39;4.70;99.90
3690;DHT22;1861;50.240;8.596;2024-01-30T05:03:07;4.70;99.90
3690;DHT22;1861;50.240;8.596;2024-01-30T05:05:35;4.70;99.90
3690;DHT22;1861;50.240;8.596;2024-01-30T05:08:04;4.50;99.90
3690;DHT22;1861;50.240;8.596;2024-01-30T05:10:32;4.60;99.90
3690;DHT22;1861;50.240;8.596;2024-01-30T05:13:01;4.50;99.90
3690;DHT22;1861;50.240;8.596;2024-01-30T05:15:30;4.60;99.90
3690;DHT22;1861;50.240;8.596;2024-01-30T05:17:58;4.60;99.90
3690;DHT22;1861;50.240;8.596;2024-01-30T05:20:27;4.60;99.90
3690;DHT22;1861;50.240;8.596;2024-01-30T05:22:55;4.60;99.90
3690;DHT22;1861;50.240;8.596;2024-01-30T05:25:23;4.60;99.90
3690;DHT22;1861;50.240;8.596;2024-01-30T05:27:51;4.60;99.90
3690;DHT22;1861;50.240;8.596;2024-01-30T05:30:20;4.60;99.90
3690;DHT22;1861;50.240;8.596;2024-01-30T05:32:49;4.70;99.90
3690;DHT22;1861;50.240;8.596;2024-01-30T05:35:17;4.60;99.90
3690;DHT22;1861;50.240;8.596;2024-01-30T05:37:48;4.50;99.90
3690;DHT22;1861;50.240;8.596;2024-01-30T05:40:17;4.60;99.90
3690;DHT22;1861;50.240;8.596;2024-01-30T05:42:45;4.60;99.90
3690;DHT22;1861;50.240;8.596;2024-01-30T05:45:13;4.60;99.90
3690;DHT22;1861;50.240;8.596;2024-01-30T05:47:41;4.70;99.90
3690;DHT22;1861;50.240;8.596;2024-01-30T05:50:11;4.80;99.90
3690;DHT22;1861;50.240;8.596;2024-01-30T05:52:39;4.80;99.90
3690;DHT22;1861;50.240;8.596;2024-01-30T05:55:07;4.70;99.90
3690;DHT22;1861;50.240;8.596;2024-01-30T05:57:36;4.80;99.90
3690;DHT22;1861;50.240;8.596;2024-01-30T06:00:05;4.70;99.90
3690;DHT22;1861;50.240;8.596;2024-01-30T06:02:34;4.70;99.90
3690;DHT22;1861;50.240;8.596;2024-01-30T06:05:03;4.70;99.90
3690;DHT22;1861;50.240;8.596;2024-01-30T06:07:32;4.70;99.90
3690;DHT22;1861;50.240;8.596;2024-01-30T06:10:04;4.70;99.90
3690;DHT22;1861;50.240;8.596;2024-01-30T06:12:32;4.70;99.90
3690;DHT22;1861;50.240;8.596;2024-01-30T06:15:00;4.60;99.90
3690;DHT22;1861;50.240;8.596;2024-01-30T06:17:29;4.50;99.90
3690;DHT22;1861;50.240;8.596;2024-01-30T06:19:57;4.50;99.90
3690;DHT22;1861;50.240;8.596;2024-01-30T06:22:25;4.60;99.90
3690;DHT22;1861;50.240;8.596;2024-01-30T06:24:55;4.60;99.90
3690;DHT22;1861;50.240;8.596;2024-01-30T06:27:23;4.60;99.90
3690;DHT22;1861;50.240;8.596;2024-01-30T06:29:51;4.60;99.90
3690;DHT22;1861;50.240;8.596;2024-01-30T06:32:19;4.70;99.90
3690;DHT22;1861;50.240;8.596;2024-01-30T06:34:47;4.60;99.90
3690;DHT22;1861;50.240;8.596;2024-01-30T06:37:15;4.60;99.90
3690;DHT22;1861;50.240;8.596;2024-01-30T06:39:43;4.60;99.90
3690;DHT22;1861;50.240;8.596;2024-01-30T06:42:13;4.60;99.90
3690;DHT22;1861;50.240;8.596;2024-01-30T06:44:41;4.60;99.90
3690;DHT22;1861;50.240;8.596;2024-01-30T06:47:09;4.60;99.90
3690;DHT22;1861;50.240;8.596;2024-01-30T06:49:37;4.70;99.90
3690;DHT22;1861;50.240;8.596;2024-01-30T06:52:06;4.60;99.90
3690;DHT22;1861;50.240;8.596;2024-01-30T06:54:34;4.60;99.90
3690;DHT22;1861;50.240;8.596;2024-01-30T06:57:03;4.70;99.90
3690;DHT22;1861;50.240;8.596;2024-01-30T06:59:35;4.60;99.90
3690;DHT22;1861;50.240;8.596;2024-01-30T07:02:03;4.50;99.90
3690;DHT22;1861;50.240;8.596;2024-01-30T07:04:32;4.60;99.90
3690;DHT22;1861;50.240;8.596;2024-01-30T07:07:00;4.60;99.90
3690;DHT22;1861;50.240;8.596;2024-01-30T07:09:29;4.70;99.90
3690;DHT22;1861;50.240;8.596;2024-01-30T07:11:57;4.60;99.90
3690;DHT22;1861;50.240;8.596;2024-01-30T07:14:26;4.50;99.90
3690;DHT22;1861;50.240;8.596;2024-01-30T07:16:55;4.60;99.90
3690;DHT22;1861;50.240;8.596;2024-01-30T07:19:23;4.50;99.90
3690;DHT22;1861;50.240;8.596;2024-01-30T07:21:51;4.60;99.90
3690;DHT22;1861;50.240;8.596;2024-01-30T07:24:20;4.70;99.90
3690;DHT22;1861;50.240;8.596;2024-01-30T07:26:48;4.70;99.90
3690;DHT22;1861;50.240;8.596;2024-01-30T07:29:16;4.80;99.90
3690;DHT22;1861;50.240;8.596;2024-01-30T07:31:44;4.80;99.90
3690;DHT22;1861;50.240;8.596;2024-01-30T07:34:14;4.70;99.90
3690;DHT22;1861;50.240;8.596;2024-01-30T07:36:42;4.80;99.90
3690;DHT22;1861;50.240;8.596;2024-01-30T07:39:10;4.80;99.90
3690;DHT22;1861;50.240;8.596;2024-01-30T07:41:38;4.70;99.90
3690;DHT22;1861;50.240;8.596;2024-01-30T07:44:06;4.70;99.90
3690;DHT22;1861;50.240;8.596;2024-01-30T07:46:35;4.80;99.90
3690;DHT22;1861;50.240;8.596;2024-01-30T07:49:03;4.80;99.90
3690;DHT22;1861;50.240;8.596;2024-01-30T07:51:32;4.80;99.90
3690;DHT22;1861;50.240;8.596;2024-01-30T07:54:00;4.90;99.90
3690;DHT22;1861;50.240;8.596;2024-01-30T07:56:28;4.80;99.90
3690;DHT22;1861;50.240;8.596;2024-01-30T07:58:56;4.90;99.90
3690;DHT22;1861;50.240;8.596;2024-01-30T08:01:25;4.90;99.90
3690;DHT22;1861;50.240;8.596;2024-01-30T08:03:53;4.90;99.90
3690;DHT22;1861;50.240;8.596;2024-01-30T08:06:21;5.00;99.90
3690;DHT22;1861;50.240;8.596;2024-01-30T08:08:51;5.00;99.90
3690;DHT22;1861;50.240;8.596;2024-01-30T08:11:20;5.00;99.90
3690;DHT22;1861;50.240;8.596;2024-01-30T08:13:52;5.00;99.90
3690;DHT22;1861;50.240;8.596;2024-01-30T08:16:20;5.00;99.90
3690;DHT22;1861;50.240;8.596;2024-01-30T08:18:48;5.10;99.90
3690;DHT22;1861;50.240;8.596;2024-01-30T08:21:17;5.10;99.90
3690;DHT22;1861;50.240;8.596;2024-01-30T08:23:45;5.20;99.90
3690;DHT22;1861;50.240;8.596;2024-01-30T08:26:14;5.20;99.90
3690;DHT22;1861;50.240;8.596;2024-01-30T08:28:43;5.20;99.90
3690;DHT22;1861;50.240;8.596;2024-01-30T08:31:11;5.30;99.90
3690;DHT22;1861;50.240;8.596;2024-01-30T08:33:39;5.40;99.90
3690;DHT22;1861;50.240;8.596;2024-01-30T08:36:10;5.50;99.90
3690;DHT22;1861;50.240;8.596;2024-01-30T08:38:38;5.60;99.90
3690;DHT22;1861;50.240;8.596;2024-01-30T08:41:07;5.70;99.90
3690;DHT22;1861;50.240;8.596;2024-01-30T08:43:36;5.80;99.90
3690;DHT22;1861;50.240;8.596;2024-01-30T08:46:05;5.90;99.90
3690;DHT22;1861;50.240;8.596;2024-01-30T08:48:33;6.00;99.90
3690;DHT22;1861;50.240;8.596;2024-01-30T08:51:01;6.00;99.90
3690;DHT22;1861;50.240;8.596;2024-01-30T08:53:29;6.00;99.90
3690;DHT22;1861;50.240;8.596;2024-01-30T08:55:58;5.90;99.90
3690;DHT22;1861;50.240;8.596;2024-01-30T08:58:26;6.00;99.90
3690;DHT22;1861;50.240;8.596;2024-01-30T09:00:55;6.10;99.90
3690;DHT22;1861;50.240;8.596;2024-01-30T09:03:24;6.10;99.90
3690;DHT22;1861;50.240;8.596;2024-01-30T09:05:52;6.20;99.90
3690;DHT22;1861;50.240;8.596;2024-01-30T09:08:20;6.20;99.90
3690;DHT22;1861;50.240;8.596;2024-01-30T09:10:48;6.10;99.90
3690;DHT22;1861;50.240;8.596;2024-01-30T09:13:17;6.20;99.90
3690;DHT22;1861;50.240;8.596;2024-01-30T09:15:46;6.20;99.90
3690;DHT22;1861;50.240;8.596;2024-01-30T09:18:16;6.20;99.90
3690;DHT22;1861;50.240;8.596;2024-01-30T09:20:44;6.30;99.90
3690;DHT22;1861;50.240;8.596;2024-01-30T09:23:14;6.20;99.90
3690;DHT22;1861;50.240;8.596;2024-01-30T09:25:44;6.20;99.90
3690;DHT22;1861;50.240;8.596;2024-01-30T09:28:13;6.20;99.90
3690;DHT22;1861;50.240;8.596;2024-01-30T09:30:41;6.30;99.90
3690;DHT22;1861;50.240;8.596;2024-01-30T09:33:10;6.20;99.90
3690;DHT22;1861;50.240;8.596;2024-01-30T09:35:39;6.30;99.90
3690;DHT22;1861;50.240;8.596;2024-01-30T09:38:07;6.30;99.90
3690;DHT22;1861;50.240;8.596;2024-01-30T09:40:35;6.40;99.90
3690;DHT22;1861;50.240;8.596;2024-01-30T09:43:04;6.40;99.90
3690;DHT22;1861;50.240;8.596;2024-01-30T09:45:32;6.30;99.90
3690;DHT22;1861;50.240;8.596;2024-01-30T09:48:01;6.40;99.90
3690;DHT22;1861;50.240;8.596;2024-01-30T09:50:30;6.40;99.90
3690;DHT22;1861;50.240;8.596;2024-01-30T09:53:01;6.40;99.90
3690;DHT22;1861;50.240;8.596;2024-01-30T09:55:29;6.40;99.90
3690;DHT22;1861;50.240;8.596;2024-01-30T09:57:58;6.40;99.90
3690;DHT22;1861;50.240;8.596;2024-01-30T10:00:26;6.40;99.90
3690;DHT22;1861;50.240;8.596;2024-01-30T10:02:55;6.50;99.90
3690;DHT22;1861;50.240;8.596;2024-01-30T10:05:26;6.50;99.90
3690;DHT22;1861;50.240;8.596;2024-01-30T10:07:56;6.50;99.90
3690;DHT22;1861;50.240;8.596;2024-01-30T10:10:26;6.50;99.90
3690;DHT22;1861;50.240;8.596;2024-01-30T10:12:55;6.50;99.90
3690;DHT22;1861;50.240;8.596;2024-01-30T10:15:23;6.50;99.90
3690;DHT22;1861;50.240;8.596;2024-01-30T10:17:51;6.60;99.90
3690;DHT22;1861;50.240;8.596;2024-01-30T10:20:20;6.60;99.90
3690;DHT22;1861;50.240;8.596;2024-01-30T10:22:49;6.60;99.90
3690;DHT22;1861;50.240;8.596;2024-01-30T10:25:17;6.70;99.90
3690;DHT22;1861;50.240;8.596;2024-01-30T10:27:52;6.70;99.90
3690;DHT22;1861;50.240;8.596;2024-01-30T10:30:21;6.70;99.90
3690;DHT22;1861;50.240;8.596;2024-01-30T10:32:50;6.70;99.90
3690;DHT22;1861;50.240;8.596;2024-01-30T10:35:18;6.60;99.90
3690;DHT22;1861;50.240;8.596;2024-01-30T10:37:47;6.60;99.90
3690;DHT22;1861;50.240;8.596;2024-01-30T10:40:16;6.70;99.90
3690;DHT22;1861;50.240;8.596;2024-01-30T10:42:45;6.60;99.90
3690;DHT22;1861;50.240;8.596;2024-01-30T10:45:15;6.70;99.90
3690;DHT22;1861;50.240;8.596;2024-01-30T10:47:48;6.70;99.90
3690;DHT22;1861;50.240;8.596;2024-01-30T10:50:17;6.70;99.90
3690;DHT22;1861;50.240;8.596;2024-01-30T10:52:46;6.70;99.90
3690;DHT22;1861;50.240;8.596;2024-01-30T10:55:16;6.70;99.90
3690;DHT22;1861;50.240;8.596;2024-01-30T10:57:44;6.70;99.90
3690;DHT22;1861;50.240;8.596;2024-01-30T11:00:15;6.70;99.90
3690;DHT22;1861;50.240;8.596;2024-01-30T11:02:45;6.80;99.90
3690;DHT22;1861;50.240;8.596;2024-01-30T11:05:14;6.80;99.90
3690;DHT22;1861;50.240;8.596;2024-01-30T11:07:43;6.70;99.90
3690;DHT22;1861;50.240;8.596;2024-01-30T11:10:12;6.80;99.90
3690;DHT22;1861;50.240;8.596;2024-01-30T11:12:43;6.80;99.90
3690;DHT22;1861;50.240;8.596;2024-01-30T11:15:14;6.80;99.90
3690;DHT22;1861;50.240;8.596;2024-01-30T11:17:45;6.80;99.90
3690;DHT22;1861;50.240;8.596;2024-01-30T11:20:20;6.80;99.90
3690;DHT22;1861;50.240;8.596;2024-01-30T11:22:51;6.80;99.90
3690;DHT22;1861;50.240;8.596;2024-01-30T11:25:20;6.80;99.90
3690;DHT22;1861;50.240;8.596;2024-01-30T11:27:50;6.80;99.90
3690;DHT22;1861;50.240;8.596;2024-01-30T11:30:22;6.80;99.90
3690;DHT22;1861;50.240;8.596;2024-01-30T11:33:03;6.80;99.90
3690;DHT22;1861;50.240;8.596;2024-01-30T11:35:34;6.90;99.90
3690;DHT22;1861;50.240;8.596;2024-01-30T11:38:03;6.80;99.90
3690;DHT22;1861;50.240;8.596;2024-01-30T11:40:33;7.00;99.90
3690;DHT22;1861;50.240;8.596;2024-01-30T11:43:03;7.00;99.90
3690;DHT22;1861;50.240;8.596;2024-01-30T11:45:33;7.00;99.90
3690;DHT22;1861;50.240;8.596;2024-01-30T11:48:04;7.00;99.90
3690;DHT22;1861;50.240;8.596;2024-01-30T11:50:34;7.00;99.90
3690;DHT22;1861;50.240;8.596;2024-01-30T11:53:04;7.00;99.90
3690;DHT22;1861;50.240;8.596;2024-01-30T11:55:33;7.00;99.90
3690;DHT22;1861;50.240;8.596;2024-01-30T11:58:03;7.10;99.90
3690;DHT22;1861;50.240;8.596;2024-01-30T12:00:32;7.10;99.90
3690;DHT22;1861;50.240;8.596;2024-01-30T12:03:03;7.10;99.90
3690;DHT22;1861;50.240;8.596;2024-01-30T12:05:34;7.20;99.90
3690;DHT22;1861;50.240;8.596;2024-01-30T12:08:03;7.20;99.90
3690;DHT22;1861;50.240;8.596;2024-01-30T12:10:33;7.20;99.90
3690;DHT22;1861;50.240;8.596;2024-01-30T12:13:01;7.30;99.90
3690;DHT22;1861;50.240;8.596;2024-01-30T12:15:30;7.30;99.90
3690;DHT22;1861;50.240;8.596;2024-01-30T12:18:07;7.30;99.90
3690;DHT22;1861;50.240;8.596;2024-01-30T12:20:35;7.30;99.90
3690;DHT22;1861;50.240;8.596;2024-01-30T12:23:04;7.40;99.90
3690;DHT22;1861;50.240;8.596;2024-01-30T12:25:32;7.40;99.90
3690;DHT22;1861;50.240;8.596;2024-01-30T12:28:02;7.40;99.90
3690;DHT22;1861;50.240;8.596;2024-01-30T12:30:31;7.40;99.90
3690;DHT22;1861;50.240;8.596;2024-01-30T12:33:00;7.40;99.90
3690;DHT22;1861;50.240;8.596;2024-01-30T12:35:30;7.40;99.90
3690;DHT22;1861;50.240;8.596;2024-01-30T12:38:00;7.50;99.90
3690;DHT22;1861;50.240;8.596;2024-01-30T12:40:28;7.40;99.90
3690;DHT22;1861;50.240;8.596;2024-01-30T12:42:56;7.50;99.90
3690;DHT22;1861;50.240;8.596;2024-01-30T12:45:25;7.50;99.90
3690;DHT22;1861;50.240;8.596;2024-01-30T12:47:53;7.50;99.90
3690;DHT22;1861;50.240;8.596;2024-01-30T12:50:22;7.50;99.90
3690;DHT22;1861;50.240;8.596;2024-01-30T12:52:52;7.50;99.90
3690;DHT22;1861;50.240;8.596;2024-01-30T12:55:20;7.50;99.90
3690;DHT22;1861;50.240;8.596;2024-01-30T12:57:48;7.60;99.90
3690;DHT22;1861;50.240;8.596;2024-01-30T13:00:17;7.60;99.90
3690;DHT22;1861;50.240;8.596;2024-01-30T13:02:45;7.60;99.90
3690;DHT22;1861;50.240;8.596;2024-01-30T13:05:13;7.70;99.90
3690;DHT22;1861;50.240;8.596;2024-01-30T13:07:42;7.60;99.90
3690;DHT22;1861;50.240;8.596;2024-01-30T13:10:12;7.70;99.90
3690;DHT22;1861;50.240;8.596;2024-01-30T13:12:40;7.70;99.90
3690;DHT22;1861;50.240;8.596;2024-01-30T13:15:09;7.70;99.90
3690;DHT22;1861;50.240;8.596;2024-01-30T13:17:38;7.70;99.90
3690;DHT22;1861;50.240;8.596;2024-01-30T13:20:07;7.70;99.90
3690;DHT22;1861;50.240;8.596;2024-01-30T13:22:38;7.70;99.90
3690;DHT22;1861;50.240;8.596;2024-01-30T13:25:07;7.70;99.90
3690;DHT22;1861;50.240;8.596;2024-01-30T13:27:37;7.70;99.90
3690;DHT22;1861;50.240;8.596;2024-01-30T13:30:07;7.80;99.90
3690;DHT22;1861;50.240;8.596;2024-01-30T13:32:36;7.80;99.90
3690;DHT22;1861;50.240;8.596;2024-01-30T13:35:06;7.70;99.90
3690;DHT22;1861;50.240;8.596;2024-01-30T13:37:34;7.80;99.90
3690;DHT22;1861;50.240;8.596;2024-01-30T13:40:04;7.80;99.90
3690;DHT22;1861;50.240;8.596;2024-01-30T13:42:38;7.80;99.90
3690;DHT22;1861;50.240;8.596;2024-01-30T13:45:07;7.80;99.90
3690;DHT22;1861;50.240;8.596;2024-01-30T13:47:37;7.80;99.90
3690;DHT22;1861;50.240;8.596;2024-01-30T13:50:06;7.90;99.90
3690;DHT22;1861;50.240;8.596;2024-01-30T13:52:35;7.90;99.90
3690;DHT22;1861;50.240;8.596;2024-01-30T13:55:11;7.80;99.90
3690;DHT22;1861;50.240;8.596;2024-01-30T13:57:41;7.90;99.90
3690;DHT22;1861;50.240;8.596;2024-01-30T14:00:10;7.90;99.90
3690;DHT22;1861;50.240;8.596;2024-01-30T14:02:43;7.90;99.90
3690;DHT22;1861;50.240;8.596;2024-01-30T14:05:11;7.90;99.90
3690;DHT22;1861;50.240;8.596;2024-01-30T14:07:40;7.90;99.90
3690;DHT22;1861;50.240;8.596;2024-01-30T14:10:10;7.90;99.90
3690;DHT22;1861;50.240;8.596;2024-01-30T14:12:43;7.90;99.90
3690;DHT22;1861;50.240;8.596;2024-01-30T14:15:12;8.00;99.90
3690;DHT22;1861;50.240;8.596;2024-01-30T14:17:54;8.00;99.90
3690;DHT22;1861;50.240;8.596;2024-01-30T14:20:23;8.00;99.90
3690;DHT22;1861;50.240;8.596;2024-01-30T14:22:51;8.00;99.90
3690;DHT22;1861;50.240;8.596;2024-01-30T14:25:20;8.00;99.90
3690;DHT22;1861;50.240;8.596;2024-01-30T14:27:50;8.00;99.90
3690;DHT22;1861;50.240;8.596;2024-01-30T14:30:20;8.00;99.90
3690;DHT22;1861;50.240;8.596;2024-01-30T14:32:48;8.00;99.90
3690;DHT22;1861;50.240;8.596;2024-01-30T14:35:17;8.00;99.90
3690;DHT22;1861;50.240;8.596;2024-01-30T14:37:46;8.00;99.90
3690;DHT22;1861;50.240;8.596;2024-01-30T14:40:14;8.00;99.90
3690;DHT22;1861;50.240;8.596;2024-01-30T14:42:43;7.90;99.90
3690;DHT22;1861;50.240;8.596;2024-01-30T14:45:13;8.00;99.90
3690;DHT22;1861;50.240;8.596;2024-01-30T14:47:41;7.90;99.90
3690;DHT22;1861;50.240;8.596;2024-01-30T14:50:10;7.90;99.90
3690;DHT22;1861;50.240;8.596;2024-01-30T14:52:38;7.90;99.90
3690;DHT22;1861;50.240;8.596;2024-01-30T14:55:08;7.90;99.90
3690;DHT22;1861;50.240;8.596;2024-01-30T14:57:37;7.90;99.90
3690;DHT22;1861;50.240;8.596;2024-01-30T15:00:06;7.90;99.90
3690;DHT22;1861;50.240;8.596;2024-01-30T15:02:37;7.90;99.90
3690;DHT22;1861;50.240;8.596;2024-01-30T15:05:05;7.80;99.90
3690;DHT22;1861;50.240;8.596;2024-01-30T15:07:34;7.90;99.90
3690;DHT22;1861;50.240;8.596;2024-01-30T15:10:07;7.90;99.90
3690;DHT22;1861;50.240;8.596;2024-01-30T15:12:37;7.90;99.90
3690;DHT22;1861;50.240;8.596;2024-01-30T15:15:08;7.90;99.90
3690;DHT22;1861;50.240;8.596;2024-01-30T15:17:39;7.90;99.90
3690;DHT22;1861;50.240;8.596;2024-01-30T15:20:08;7.90;99.90
3690;DHT22;1861;50.240;8.596;2024-01-30T15:22:36;7.90;99.90
3690;DHT22;1861;50.240;8.596;2024-01-30T15:25:07;7.80;99.90
3690;DHT22;1861;50.240;8.596;2024-01-30T15:27:35;7.80;99.90
3690;DHT22;1861;50.240;8.596;2024-01-30T15:30:04;7.80;99.90
3690;DHT22;1861;50.240;8.596;2024-01-30T15:32:32;7.80;99.90
3690;DHT22;1861;50.240;8.596;2024-01-30T15:35:02;7.80;99.90
3690;DHT22;1861;50.240;8.596;2024-01-30T15:37:32;7.80;99.90
3690;DHT22;1861;50.240;8.596;2024-01-30T15:40:00;7.80;99.90
3690;DHT22;1861;50.240;8.596;2024-01-30T15:42:29;7.80;99.90
3690;DHT22;1861;50.240;8.596;2024-01-30T15:44:57;7.80;99.90
3690;DHT22;1861;50.240;8.596;2024-01-30T15:47:26;7.80;99.90
3690;DHT22;1861;50.240;8.596;2024-01-30T15:49:54;7.70;99.90
3690;DHT22;1861;50.240;8.596;2024-01-30T15:52:24;7.70;99.90
3690;DHT22;1861;50.240;8.596;2024-01-30T15:54:52;7.80;99.90
3690;DHT22;1861;50.240;8.596;2024-01-30T15:57:20;7.80;99.90
3690;DHT22;1861;50.240;8.596;2024-01-30T15:59:48;7.80;99.90
3690;DHT22;1861;50.240;8.596;2024-01-30T16:02:16;7.80;99.90
3690;DHT22;1861;50.240;8.596;2024-01-30T16:04:45;7.80;99.90
3690;DHT22;1861;50.240;8.596;2024-01-30T16:07:13;7.80;99.90
3690;DHT22;1861;50.240;8.596;2024-01-30T16:09:43;7.90;99.90
3690;DHT22;1861;50.240;8.596;2024-01-30T16:12:12;7.80;99.90
3690;DHT22;1861;50.240;8.596;2024-01-30T16:14:40;7.80;99.90
3690;DHT22;1861;50.240;8.596;2024-01-30T16:17:08;7.80;99.90
3690;DHT22;1861;50.240;8.596;2024-01-30T16:19:36;7.90;99.90
3690;DHT22;1861;50.240;8.596;2024-01-30T16:22:05;7.90;99.90
3690;DHT22;1861;50.240;8.596;2024-01-30T16:24:33;7.80;99.90
3690;DHT22;1861;50.240;8.596;2024-01-30T16:27:03;7.90;99.90